Time;durP1;ratioP1;P1;durP2;ratioP2;P2;SDS_P1;SDS_P2;PMS_P1;PMS_P2;Temp;Humidity;BMP_temperature;BMP_pressure;BME280_temperature;BME280_humidity;BME280_pressure;Samples;Min_cycle;Max_cycle;Signal;HPM_P1;HPM_P2
2022/05/02 00:00:17;;;;;;;;;26.75;24.75;;;;;-143.93;100.00;62969.28;4992611;28;8843;-67
2022/05/02 00:02:43;;;;;;;;;34.25;26.75;;;;;-143.93;100.00;62969.28;4988627;28;8805;-67
2022/05/02 00:05:09;;;;;;;;;25.25;23.00;;;;;-143.93;100.00;62969.28;4991721;28;8836;-69
2022/05/02 00:07:36;;;;;;;;;32.00;27.00;;;;;-143.93;100.00;62969.28;4999030;28;8890;-68
2022/05/02 00:10:02;;;;;;;;;32.00;26.25;;;;;-143.93;100.00;62969.28;4998635;28;8800;-67
2022/05/02 00:12:28;;;;;;;;;23.00;22.00;;;;;-143.93;100.00;62969.28;4992230;28;8847;-67
2022/05/02 00:14:53;;;;;;;;;30.25;26.00;;;;;-143.93;100.00;62969.28;5007861;28;9547;-67
2022/05/02 00:17:18;;;;;;;;;34.25;28.75;;;;;-143.93;100.00;62969.28;5020406;27;8821;-67
2022/05/02 00:19:44;;;;;;;;;30.25;26.75;;;;;-143.93;100.00;62969.28;5004070;28;8821;-68
2022/05/02 00:22:09;;;;;;;;;29.75;26.00;;;;;-143.93;100.00;62969.28;5003512;28;8844;-67
2022/05/02 00:24:34;;;;;;;;;29.00;24.00;;;;;-143.93;100.00;62969.28;5003670;28;8945;-68
2022/05/02 00:27:00;;;;;;;;;24.75;22.00;;;;;-143.93;100.00;62969.28;4993701;28;8877;-68
2022/05/02 00:29:25;;;;;;;;;23.50;21.75;;;;;-143.93;100.00;62969.28;4993137;28;8812;-68
2022/05/02 00:31:51;;;;;;;;;28.00;25.25;;;;;-143.93;100.00;62969.28;5008139;28;8832;-67
2022/05/02 00:34:16;;;;;;;;;24.25;22.50;;;;;-143.93;100.00;62969.28;5003196;28;8863;-67
2022/05/02 00:36:42;;;;;;;;;30.50;27.50;;;;;-143.93;100.00;62969.28;5003028;28;8851;-67
2022/05/02 00:39:08;;;;;;;;;27.00;21.75;;;;;-143.93;100.00;62969.28;5007466;28;8875;-67
2022/05/02 00:41:34;;;;;;;;;26.50;23.50;;;;;-143.93;100.00;62969.28;4991742;28;8864;-66
2022/05/02 00:43:59;;;;;;;;;22.75;21.75;;;;;-143.93;100.00;62969.28;5005522;28;8823;-67
2022/05/02 00:46:26;;;;;;;;;28.75;23.00;;;;;-143.93;100.00;62969.28;5026773;27;8923;-66
2022/05/02 00:48:52;;;;;;;;;30.00;21.00;;;;;-143.93;100.00;62969.28;5003144;28;8789;-67
2022/05/02 00:51:19;;;;;;;;;24.50;21.00;;;;;-143.93;100.00;62969.28;5003407;28;8826;-67
2022/05/02 00:53:48;;;;;;;;;28.25;22.25;;;;;-143.93;100.00;62969.28;5007278;28;8834;-67
2022/05/02 00:56:15;;;;;;;;;24.00;22.00;;;;;-143.93;100.00;62969.28;5005698;28;8794;-67
2022/05/02 00:58:41;;;;;;;;;28.00;21.75;;;;;-143.93;100.00;62969.28;5004705;28;8805;-67
2022/05/02 01:01:06;;;;;;;;;21.75;20.50;;;;;-143.93;100.00;62969.28;5003028;28;8821;-67
2022/05/02 01:03:34;;;;;;;;;22.50;16.25;;;;;-143.93;100.00;62969.28;5003940;28;8907;-67
2022/05/02 01:08:43;;;;;;;;;20.25;18.50;;;;;-143.93;100.00;62969.28;4991226;28;8801;-67
2022/05/02 01:11:09;;;;;;;;;18.50;18.50;;;;;-143.93;100.00;62969.28;4994023;28;8983;-68
2022/05/02 01:13:46;;;;;;;;;21.50;20.75;;;;;-143.93;100.00;62969.28;4995286;28;8846;-67
2022/05/02 01:16:17;;;;;;;;;17.50;14.00;;;;;-143.93;100.00;62969.28;4994905;28;8830;-67
2022/05/02 01:18:44;;;;;;;;;17.75;16.00;;;;;-143.93;100.00;62969.28;4994726;28;8824;-67
2022/05/02 01:21:18;;;;;;;;;18.75;17.75;;;;;-143.93;100.00;62969.28;4994375;28;8798;-67
2022/05/02 01:23:46;;;;;;;;;21.75;17.00;;;;;-143.93;100.00;62969.28;5071899;28;8904;-68
2022/05/02 01:26:12;;;;;;;;;17.00;14.75;;;;;-143.93;100.00;62969.28;5005416;28;8892;-68
2022/05/02 01:28:44;;;;;;;;;20.75;15.75;;;;;-143.93;100.00;62969.28;4995151;28;8800;-68
2022/05/02 01:31:10;;;;;;;;;23.00;19.50;;;;;-143.93;100.00;62969.28;4993827;28;8842;-68
2022/05/02 01:33:36;;;;;;;;;22.50;18.25;;;;;-143.93;100.00;62969.28;4994639;28;8877;-68
2022/05/02 01:36:02;;;;;;;;;20.75;18.50;;;;;-143.93;100.00;62969.28;4993001;28;8824;-68
2022/05/02 01:38:28;;;;;;;;;24.00;19.25;;;;;-143.93;100.00;62969.28;5004387;28;8805;-68
2022/05/02 01:40:53;;;;;;;;;20.75;16.50;;;;;-143.93;100.00;62969.28;4995999;28;8823;-68
2022/05/02 01:43:18;;;;;;;;;20.00;16.75;;;;;-143.93;100.00;62969.28;5001259;28;8869;-68
2022/05/02 01:45:44;;;;;;;;;20.50;19.50;;;;;-143.93;100.00;62969.28;5025304;27;8824;-68
2022/05/02 01:48:09;;;;;;;;;22.75;16.75;;;;;-143.93;100.00;62969.28;4999258;28;8834;-68
2022/05/02 01:50:34;;;;;;;;;24.00;18.75;;;;;-143.93;100.00;62969.28;5006501;28;8850;-68
2022/05/02 01:53:00;;;;;;;;;21.25;19.25;;;;;-143.93;100.00;62969.28;4993559;28;8797;-68
2022/05/02 01:55:25;;;;;;;;;20.00;16.50;;;;;-143.93;100.00;62969.28;4994248;28;8854;-68
2022/05/02 01:57:50;;;;;;;;;25.75;19.75;;;;;-143.93;100.00;62969.28;4994303;28;8862;-68
2022/05/02 02:00:16;;;;;;;;;22.75;19.25;;;;;-143.93;100.00;62969.28;4994058;28;8918;-68
2022/05/02 02:02:41;;;;;;;;;22.00;19.50;;;;;-143.93;100.00;62969.28;4989950;28;8821;-68
2022/05/02 02:07:51;;;;;;;;;20.50;17.75;;;;;-143.93;100.00;62969.28;5006012;28;8817;-68
2022/05/02 02:10:17;;;;;;;;;19.00;17.50;;;;;-143.93;100.00;62969.28;4997973;28;8838;-68
2022/05/02 02:12:42;;;;;;;;;19.50;15.50;;;;;-143.93;100.00;62969.28;4995566;28;8844;-68
2022/05/02 02:15:08;;;;;;;;;16.00;15.75;;;;;-143.93;100.00;62969.28;5027314;27;8935;-68
2022/05/02 02:17:33;;;;;;;;;22.50;18.50;;;;;-143.93;100.00;62969.28;4990694;28;8794;-68
2022/05/02 02:19:59;;;;;;;;;20.75;18.25;;;;;-143.93;100.00;62969.28;4993351;28;8846;-68
2022/05/02 02:22:24;;;;;;;;;18.25;17.75;;;;;-143.93;100.00;62969.28;5015957;28;8813;-68
2022/05/02 02:24:50;;;;;;;;;22.75;19.50;;;;;-143.93;100.00;62969.28;5002161;28;8809;-68
2022/05/02 02:27:15;;;;;;;;;21.00;19.00;;;;;-143.93;100.00;62969.28;5001755;28;8819;-68
2022/05/02 02:29:41;;;;;;;;;29.00;21.75;;;;;-143.93;100.00;62969.28;5005733;28;8797;-68
2022/05/02 02:32:07;;;;;;;;;22.00;20.50;;;;;-143.93;100.00;62969.28;4993146;28;8812;-68
2022/05/02 02:34:32;;;;;;;;;21.75;19.75;;;;;-143.93;100.00;62969.28;4994254;28;9414;-68
2022/05/02 02:36:58;;;;;;;;;24.50;19.25;;;;;-143.93;100.00;62969.28;4997191;28;8932;-68
2022/05/02 02:39:23;;;;;;;;;17.50;17.00;;;;;-143.93;100.00;62969.28;5004919;28;8801;-68
2022/05/02 02:41:48;;;;;;;;;20.75;17.50;;;;;-143.93;100.00;62969.28;4989977;28;9640;-68
2022/05/02 02:44:14;;;;;;;;;18.50;14.50;;;;;-143.93;100.00;62969.28;5005633;28;8849;-68
2022/05/02 02:46:39;;;;;;;;;22.00;19.00;;;;;-143.93;100.00;62969.28;4999726;28;8800;-68
2022/05/02 02:49:04;;;;;;;;;25.50;22.75;;;;;-143.93;100.00;62969.28;4994073;28;8843;-68
2022/05/02 02:51:30;;;;;;;;;20.50;17.75;;;;;-143.93;100.00;62969.28;4993762;28;8944;-68
2022/05/02 02:53:55;;;;;;;;;25.50;20.50;;;;;-143.93;100.00;62969.28;4990956;28;8937;-68
2022/05/02 02:56:21;;;;;;;;;25.50;19.50;;;;;-143.93;100.00;62969.28;4989978;28;8828;-68
2022/05/02 02:58:46;;;;;;;;;22.50;20.00;;;;;-143.93;100.00;62969.28;4993210;28;9581;-68
2022/05/02 03:01:12;;;;;;;;;21.25;19.00;;;;;-143.93;100.00;62969.28;4998252;28;8833;-68
2022/05/02 03:03:37;;;;;;;;;25.25;20.00;;;;;-143.93;100.00;62969.28;5002102;28;8821;-68
2022/05/02 03:06:05;;;;;;;;;27.50;23.75;;;;;-143.93;100.00;62969.28;5003201;28;9629;-68
2022/05/02 03:08:36;;;;;;;;;30.75;23.25;;;;;-143.93;100.00;62969.28;5001249;28;8809;-68
2022/05/02 03:11:02;;;;;;;;;29.00;22.75;;;;;-143.93;100.00;62969.28;4995309;28;9591;-68
2022/05/02 03:13:27;;;;;;;;;28.25;21.75;;;;;-143.93;100.00;62969.28;4999798;27;8825;-68
2022/05/02 03:15:53;;;;;;;;;28.50;20.25;;;;;-143.93;100.00;62969.28;5001527;28;8886;-68
2022/05/02 03:18:18;;;;;;;;;28.75;24.75;;;;;-143.93;100.00;62969.28;5001674;28;8815;-68
2022/05/02 03:20:44;;;;;;;;;24.50;24.25;;;;;-143.93;100.00;62969.28;5005658;28;8938;-68
2022/05/02 03:23:09;;;;;;;;;35.00;25.50;;;;;-143.93;100.00;62969.28;5003936;28;8906;-68
2022/05/02 03:25:34;;;;;;;;;27.75;25.75;;;;;-143.93;100.00;62969.28;5001448;28;9693;-68
2022/05/02 03:28:00;;;;;;;;;31.00;22.00;;;;;-143.93;100.00;62969.28;5001072;28;8805;-68
2022/05/02 03:30:25;;;;;;;;;31.25;26.00;;;;;-143.93;100.00;62969.28;5001353;28;8824;-68
2022/05/02 03:32:51;;;;;;;;;30.75;26.50;;;;;-143.93;100.00;62969.28;5003560;28;8833;-68
2022/05/02 03:35:16;;;;;;;;;29.25;26.50;;;;;-143.93;100.00;62969.28;5003655;28;8813;-68
2022/05/02 03:37:41;;;;;;;;;25.50;22.75;;;;;-143.93;100.00;62969.28;5001811;28;8813;-68
2022/05/02 03:40:08;;;;;;;;;33.50;27.00;;;;;-143.93;100.00;62969.28;5001703;28;8821;-68
2022/05/02 03:42:33;;;;;;;;;32.50;25.00;;;;;-143.93;100.00;62969.28;5003179;28;8868;-68
2022/05/02 03:44:59;;;;;;;;;29.75;22.25;;;;;-143.93;100.00;62969.28;5008286;28;8847;-68
2022/05/02 03:47:24;;;;;;;;;28.50;25.75;;;;;-143.93;100.00;62969.28;5003915;28;8813;-68
2022/05/02 03:49:49;;;;;;;;;31.25;26.75;;;;;-143.93;100.00;62969.28;5002797;28;8833;-68
2022/05/02 03:52:15;;;;;;;;;30.25;24.00;;;;;-143.93;100.00;62969.28;5000881;28;8836;-68
2022/05/02 03:54:40;;;;;;;;;30.00;27.25;;;;;-143.93;100.00;62969.28;5011624;28;8836;-68
2022/05/02 03:57:06;;;;;;;;;31.75;26.50;;;;;-143.93;100.00;62969.28;4992982;28;9595;-68
2022/05/02 03:59:31;;;;;;;;;30.50;25.75;;;;;-143.93;100.00;62969.28;5007100;28;8984;-68
2022/05/02 04:01:56;;;;;;;;;28.75;22.75;;;;;-143.93;100.00;62969.28;5008928;28;8894;-68
2022/05/02 04:04:22;;;;;;;;;27.25;25.50;;;;;-143.93;100.00;62969.28;5003823;28;8836;-68
2022/05/02 04:06:48;;;;;;;;;29.50;27.25;;;;;-143.93;100.00;62969.28;5002974;28;8849;-68
2022/05/02 04:09:14;;;;;;;;;36.75;27.75;;;;;-143.93;100.00;62969.28;5007201;28;8902;-68
2022/05/02 04:11:39;;;;;;;;;37.75;26.25;;;;;-143.93;100.00;62969.28;4990979;28;8825;-68
2022/05/02 04:14:04;;;;;;;;;32.75;25.00;;;;;-143.93;100.00;62969.28;5001804;28;8800;-68
2022/05/02 04:16:30;;;;;;;;;37.00;29.75;;;;;-143.93;100.00;62969.28;5005624;28;8825;-68
2022/05/02 04:18:55;;;;;;;;;29.00;24.75;;;;;-143.93;100.00;62969.28;5001232;28;8826;-68
2022/05/02 04:21:20;;;;;;;;;38.25;32.25;;;;;-143.93;100.00;62969.28;4995487;28;8847;-68
2022/05/02 04:23:46;;;;;;;;;26.25;25.50;;;;;-143.93;100.00;62969.28;4991688;28;8926;-68
2022/05/02 04:26:11;;;;;;;;;30.25;23.50;;;;;-143.93;100.00;62969.28;4994165;28;9574;-68
2022/05/02 04:28:36;;;;;;;;;35.50;28.75;;;;;-143.93;100.00;62969.28;5003992;28;8825;-68
2022/05/02 04:31:02;;;;;;;;;32.00;26.25;;;;;-143.93;100.00;62969.28;5003464;28;8836;-68
2022/05/02 04:33:27;;;;;;;;;33.00;30.00;;;;;-143.93;100.00;62969.28;5003525;28;8934;-68
2022/05/02 04:35:53;;;;;;;;;37.50;29.00;;;;;-143.93;100.00;62969.28;5006486;28;8916;-68
2022/05/02 04:38:18;;;;;;;;;28.25;26.00;;;;;-143.93;100.00;62969.28;5005192;28;8829;-68
2022/05/02 04:40:44;;;;;;;;;36.25;31.25;;;;;-143.93;100.00;62969.28;4994352;28;8862;-68
2022/05/02 04:43:09;;;;;;;;;31.25;28.25;;;;;-143.93;100.00;62969.28;5001490;28;9678;-68
2022/05/02 04:45:34;;;;;;;;;31.25;25.00;;;;;-143.93;100.00;62969.28;5007521;28;8959;-68
2022/05/02 04:48:00;;;;;;;;;31.50;24.75;;;;;-143.93;100.00;62969.28;5005276;28;8936;-68
2022/05/02 04:50:25;;;;;;;;;31.75;29.00;;;;;-143.93;100.00;62969.28;5006470;28;8836;-68
2022/05/02 04:52:51;;;;;;;;;35.25;25.75;;;;;-143.93;100.00;62969.28;5004913;28;8901;-68
2022/05/02 04:55:16;;;;;;;;;32.00;28.00;;;;;-143.93;100.00;62969.28;5003163;28;8817;-68
2022/05/02 04:57:42;;;;;;;;;31.25;26.75;;;;;-143.93;100.00;62969.28;5002421;28;8823;-68
2022/05/02 05:00:07;;;;;;;;;29.75;27.25;;;;;-143.93;100.00;62969.28;5008991;28;8844;-68
2022/05/02 05:02:33;;;;;;;;;31.00;24.00;;;;;-143.93;100.00;62969.28;4991874;28;8820;-68
2022/05/02 05:04:59;;;;;;;;;29.25;28.25;;;;;-143.93;100.00;62969.28;4993371;28;8780;-68
2022/05/02 05:07:24;;;;;;;;;39.75;29.50;;;;;-143.93;100.00;62969.28;5002549;28;8821;-68
2022/05/02 05:09:50;;;;;;;;;35.50;28.25;;;;;-143.93;100.00;62969.28;5002935;28;8829;-68
2022/05/02 05:12:40;;;;;;;;;28.75;26.25;;;;;-143.93;100.00;62969.28;5002990;28;8840;-68
2022/05/02 05:17:49;;;;;;;;;31.50;26.75;;;;;-143.93;100.00;62969.28;4992209;28;9456;-68
2022/05/02 05:20:27;;;;;;;;;33.00;30.00;;;;;-143.93;100.00;62969.28;5005264;28;8844;-68
2022/05/02 05:23:12;;;;;;;;;35.00;29.00;;;;;-143.93;100.00;62969.28;5007586;28;8839;-68
2022/05/02 05:25:49;;;;;;;;;29.00;26.25;;;;;-143.93;100.00;62969.28;4995406;28;8796;-68
2022/05/02 05:28:20;;;;;;;;;27.00;27.00;;;;;-143.93;100.00;62969.28;4994645;28;8808;-68
2022/05/02 05:30:50;;;;;;;;;33.25;22.50;;;;;-143.93;100.00;62969.28;4994620;28;8812;-68
2022/05/02 05:33:34;;;;;;;;;33.75;28.00;;;;;-143.93;100.00;62969.28;4994966;28;9677;-68
2022/05/02 05:36:03;;;;;;;;;32.00;26.50;;;;;-143.93;100.00;62969.28;4991736;28;8886;-67
2022/05/02 05:38:42;;;;;;;;;39.25;28.25;;;;;-143.93;100.00;62969.28;5006166;28;8789;-68
2022/05/02 05:41:43;;;;;;;;;33.75;27.00;;;;;-143.93;100.00;62969.28;5000413;28;8831;-68
2022/05/02 05:44:14;;;;;;;;;33.50;25.00;;;;;-143.93;100.00;62969.28;5006499;28;8789;-68
2022/05/02 05:46:58;;;;;;;;;30.25;22.50;;;;;-143.93;100.00;62969.28;5004226;28;8870;-68
2022/05/02 05:49:35;;;;;;;;;37.75;30.50;;;;;-143.93;100.00;62969.28;5002422;28;8902;-68
2022/05/02 05:52:44;;;;;;;;;32.75;29.25;;;;;-143.93;100.00;62969.28;5002447;28;9718;-68
2022/05/02 05:55:20;;;;;;;;;34.75;31.25;;;;;-143.93;100.00;62969.28;4982217;28;8841;-68
2022/05/02 05:57:49;;;;;;;;;36.50;28.50;;;;;-143.93;100.00;62969.28;4982044;28;8826;-68
2022/05/02 06:00:15;;;;;;;;;40.50;31.25;;;;;-143.93;100.00;62969.28;4975433;28;8785;-68
2022/05/02 06:02:56;;;;;;;;;34.25;29.50;;;;;-143.93;100.00;62969.28;4983448;28;8824;-68
2022/05/02 06:05:21;;;;;;;;;36.50;28.75;;;;;-143.93;100.00;62969.28;4984291;28;8882;-68
2022/05/02 06:07:47;;;;;;;;;31.75;28.50;;;;;-143.93;100.00;62969.28;4974272;28;8795;-68
2022/05/02 06:10:15;;;;;;;;;35.75;31.25;;;;;-143.93;100.00;62969.28;4975272;28;8853;-68
2022/05/02 06:12:43;;;;;;;;;31.25;29.25;;;;;-143.93;100.00;62969.28;4975116;28;8889;-69
2022/05/02 06:20:43;;;;;;;;;36.25;29.25;;;;;-143.93;100.00;62969.28;4970876;28;8825;-66
2022/05/02 06:23:12;;;;;;;;;37.00;31.00;;;;;-143.93;100.00;62969.28;4983423;28;8884;-67
2022/05/02 06:25:37;;;;;;;;;37.50;30.75;;;;;-143.93;100.00;62969.28;4981789;28;8821;-67
2022/05/02 06:28:05;;;;;;;;;47.75;33.50;;;;;-143.93;100.00;62969.28;4979357;28;8807;-67
2022/05/02 06:30:33;;;;;;;;;44.00;36.00;;;;;-143.93;100.00;62969.28;4975068;28;8813;-68
2022/05/02 06:33:04;;;;;;;;;36.75;31.50;;;;;-143.93;100.00;62969.28;4996380;28;8795;-66
2022/05/02 06:35:40;;;;;;;;;45.00;35.25;;;;;-143.93;100.00;62969.28;4990450;28;8793;-66
2022/05/02 06:38:17;;;;;;;;;40.00;33.25;;;;;-143.93;100.00;62969.28;5064997;28;8775;-67
2022/05/02 06:40:51;;;;;;;;;40.00;34.25;;;;;-143.93;100.00;62969.28;5029701;27;8825;-67
2022/05/02 06:43:25;;;;;;;;;45.25;32.75;;;;;-143.93;100.00;62969.28;5001818;27;8844;-67
2022/05/02 06:46:00;;;;;;;;;41.50;33.75;;;;;-143.93;100.00;62969.28;4999465;28;8874;-67
2022/05/02 06:48:32;;;;;;;;;45.25;36.00;;;;;-143.93;100.00;62969.28;4992242;28;11554;-68
2022/05/02 06:51:06;;;;;;;;;42.50;33.75;;;;;-143.93;100.00;62969.28;5002679;28;8808;-67
2022/05/02 06:53:48;;;;;;;;;49.75;36.50;;;;;-143.93;100.00;62969.28;4990535;28;8811;-67
2022/05/02 06:56:42;;;;;;;;;40.50;34.25;;;;;-143.93;100.00;62969.28;5004287;28;8777;-67
2022/05/02 06:59:29;;;;;;;;;43.50;35.75;;;;;-143.93;100.00;62969.28;5004277;28;8762;-67
2022/05/02 07:02:01;;;;;;;;;44.75;35.50;;;;;-143.93;100.00;62969.28;4997557;28;8926;-68
2022/05/02 07:04:33;;;;;;;;;34.00;32.00;;;;;-143.93;100.00;62969.28;5011873;28;8862;-67
2022/05/02 07:07:04;;;;;;;;;45.75;33.25;;;;;-143.93;100.00;62969.28;5001363;28;8843;-67
2022/05/02 07:09:43;;;;;;;;;41.00;34.25;;;;;-143.93;100.00;62969.28;5027511;28;8805;-67
2022/05/02 07:12:25;;;;;;;;;39.25;32.75;;;;;-143.93;100.00;62969.28;4988330;28;8938;-68
2022/05/02 07:15:09;;;;;;;;;43.25;36.00;;;;;-143.93;100.00;62969.28;4990678;28;8824;-67
2022/05/02 07:17:44;;;;;;;;;44.00;35.75;;;;;-143.93;100.00;62969.28;5003606;28;8945;-67
2022/05/02 07:20:21;;;;;;;;;40.50;34.00;;;;;-143.93;100.00;62969.28;5004086;28;8801;-67
2022/05/02 07:22:53;;;;;;;;;47.00;34.75;;;;;-143.93;100.00;62969.28;4992571;28;8808;-67
2022/05/02 07:25:22;;;;;;;;;46.25;37.25;;;;;-143.93;100.00;62969.28;5008948;28;8871;-68
2022/05/02 07:28:18;;;;;;;;;39.75;35.00;;;;;-143.93;100.00;62969.28;5004989;28;8886;-67
2022/05/02 07:30:45;;;;;;;;;45.25;35.75;;;;;-143.93;100.00;62969.28;4998328;28;8817;-68
2022/05/02 07:33:12;;;;;;;;;44.25;35.00;;;;;-143.93;100.00;62969.28;5003041;28;8797;-68
2022/05/02 07:35:39;;;;;;;;;47.50;37.00;;;;;-143.93;100.00;62969.28;5067538;28;8830;-67
2022/05/02 07:38:05;;;;;;;;;38.75;34.25;;;;;-143.93;100.00;62969.28;5017148;28;8783;-67
2022/05/02 07:40:31;;;;;;;;;43.50;35.25;;;;;-143.93;100.00;62969.28;5037437;27;8831;-68
2022/05/02 07:43:00;;;;;;;;;41.75;34.25;;;;;-143.93;100.00;62969.28;5026285;27;8842;-68
2022/05/02 07:45:29;;;;;;;;;45.25;35.75;;;;;-143.93;100.00;62969.28;4993000;28;8813;-68
2022/05/02 07:48:00;;;;;;;;;39.00;33.25;;;;;-143.93;100.00;62969.28;5000131;28;8918;-68
2022/05/02 07:50:27;;;;;;;;;45.50;34.25;;;;;-143.93;100.00;62969.28;4987644;28;8810;-68
2022/05/02 07:52:55;;;;;;;;;46.75;39.25;;;;;-143.93;100.00;62969.28;4997633;28;8825;-67
2022/05/02 07:55:22;;;;;;;;;39.50;33.75;;;;;-143.93;100.00;62969.28;5003606;28;8809;-68
2022/05/02 07:57:48;;;;;;;;;49.25;37.75;;;;;-143.93;100.00;62969.28;4996538;28;8922;-66
2022/05/02 08:00:16;;;;;;;;;48.50;37.50;;;;;-143.93;100.00;62969.28;4998538;28;8824;-66
2022/05/02 08:02:42;;;;;;;;;37.50;33.75;;;;;-143.93;100.00;62969.28;5010454;28;8851;-67
2022/05/02 08:05:08;;;;;;;;;43.00;36.00;;;;;-143.93;100.00;62969.28;5003506;28;8896;-67
2022/05/02 08:07:43;;;;;;;;;46.25;36.00;;;;;-143.93;100.00;62969.28;5020628;28;8986;-67
2022/05/02 08:10:25;;;;;;;;;50.50;38.50;;;;;-143.93;100.00;62969.28;4992425;28;8922;-66
2022/05/02 08:13:28;;;;;;;;;41.50;35.50;;;;;-143.93;100.00;62969.28;4994611;28;8883;-67
2022/05/02 08:16:05;;;;;;;;;49.75;38.00;;;;;-143.93;100.00;62969.28;4992317;28;8839;-68
2022/05/02 08:18:51;;;;;;;;;48.50;39.00;;;;;-143.93;100.00;62969.28;5003499;28;8823;-68
2022/05/02 08:21:32;;;;;;;;;48.00;38.00;;;;;-143.93;100.00;62969.28;4997834;28;8870;-68
2022/05/02 08:27:24;;;;;;;;;46.75;38.00;;;;;-143.93;100.00;62969.28;4989390;28;8827;-67
2022/05/02 08:30:05;;;;;;;;;46.75;37.25;;;;;-143.93;100.00;62969.28;4994287;28;8802;-68
2022/05/02 08:32:52;;;;;;;;;48.00;38.00;;;;;-143.93;100.00;62969.28;5003425;28;8793;-68
2022/05/02 08:35:24;;;;;;;;;48.50;37.00;;;;;-143.93;100.00;62969.28;5002988;28;8805;-67
2022/05/02 08:37:55;;;;;;;;;48.75;38.25;;;;;-143.93;100.00;62969.28;5001938;28;8801;-68
2022/05/02 08:40:26;;;;;;;;;52.00;40.00;;;;;-143.93;100.00;62969.28;4996875;28;8870;-68
2022/05/02 08:43:19;;;;;;;;;54.00;42.50;;;;;-143.93;100.00;62969.28;5002175;28;8832;-67
2022/05/02 08:46:15;;;;;;;;;48.00;37.50;;;;;-143.93;100.00;62969.28;4999589;28;9722;-67
2022/05/02 08:49:32;;;;;;;;;49.75;37.75;;;;;-143.93;100.00;62969.28;4995886;28;8860;-66
2022/05/02 08:52:00;;;;;;;;;45.00;37.25;;;;;-143.93;100.00;62969.28;5003152;28;8816;-66
2022/05/02 08:54:49;;;;;;;;;51.25;40.00;;;;;-143.93;100.00;62969.28;4998676;28;8830;-67
2022/05/02 08:58:03;;;;;;;;;51.25;40.25;;;;;-143.93;100.00;62969.28;5003270;28;9625;-67
2022/05/02 09:00:47;;;;;;;;;45.75;37.75;;;;;-143.93;100.00;62969.28;4994919;28;8803;-67
2022/05/02 09:03:36;;;;;;;;;49.50;39.25;;;;;-143.93;100.00;62969.28;5001296;28;8812;-67
2022/05/02 09:06:20;;;;;;;;;46.75;37.50;;;;;-143.93;100.00;62969.28;4992500;28;8765;-67
2022/05/02 09:09:07;;;;;;;;;49.50;36.50;;;;;-143.93;100.00;62969.28;4992333;28;8852;-67
2022/05/02 09:11:34;;;;;;;;;47.25;36.25;;;;;-143.93;100.00;62969.28;5004163;28;8808;-67
2022/05/02 09:14:36;;;;;;;;;46.50;37.50;;;;;-143.93;100.00;62969.28;5003773;28;8801;-67
2022/05/02 09:17:35;;;;;;;;;47.75;36.75;;;;;-143.93;100.00;62969.28;5027035;28;8789;-67
2022/05/02 09:20:22;;;;;;;;;48.25;38.75;;;;;-143.93;100.00;62969.28;4994492;28;8845;-67
2022/05/02 09:23:06;;;;;;;;;49.25;39.25;;;;;-143.93;100.00;62969.28;4997506;28;8796;-68
2022/05/02 09:25:57;;;;;;;;;48.25;37.75;;;;;-143.93;100.00;62969.28;5041972;28;8809;-68
2022/05/02 09:28:29;;;;;;;;;45.25;36.25;;;;;-143.93;100.00;62969.28;5004121;28;8792;-68
2022/05/02 09:31:00;;;;;;;;;46.50;37.00;;;;;-143.93;100.00;62969.28;5025173;28;8825;-67
2022/05/02 09:33:42;;;;;;;;;45.50;35.75;;;;;-143.93;100.00;62969.28;5002526;28;8820;-68
2022/05/02 09:36:30;;;;;;;;;44.00;37.00;;;;;-143.93;100.00;62969.28;5001150;28;8824;-67
2022/05/02 09:39:14;;;;;;;;;40.75;35.25;;;;;-143.93;100.00;62969.28;4992532;28;8801;-68
2022/05/02 09:42:07;;;;;;;;;45.50;36.25;;;;;-143.93;100.00;62969.28;5058942;28;8824;-68
2022/05/02 09:51:11;;;;;;;;;36.00;32.00;;;;;-143.93;100.00;62969.28;5027561;28;8805;-68
2022/05/02 09:54:01;;;;;;;;;40.00;34.00;;;;;-143.93;100.00;62969.28;5064467;28;9639;-68
2022/05/02 09:56:39;;;;;;;;;59.00;47.50;;;;;-143.93;100.00;62969.28;5008138;28;8853;-67
2022/05/02 09:59:22;;;;;;;;;35.50;32.25;;;;;-143.93;100.00;62969.28;5004534;28;9950;-68
2022/05/02 10:01:50;;;;;;;;;36.75;32.00;;;;;-143.93;100.00;62969.28;5002364;28;8790;-68
2022/05/02 10:04:35;;;;;;;;;35.00;30.00;;;;;-143.93;100.00;62969.28;4998046;28;8790;-68
2022/05/02 10:07:08;;;;;;;;;31.75;29.50;;;;;-143.93;100.00;62969.28;4998369;28;9006;-68
2022/05/02 10:09:48;;;;;;;;;34.50;31.00;;;;;-143.93;100.00;62969.28;4996981;28;8800;-68
2022/05/02 10:12:31;;;;;;;;;39.50;32.25;;;;;-143.93;100.00;62969.28;4994898;28;8816;-68
2022/05/02 10:15:05;;;;;;;;;40.00;33.50;;;;;-143.93;100.00;62969.28;5003122;28;8800;-68
2022/05/02 10:17:51;;;;;;;;;38.75;31.50;;;;;-143.93;100.00;62969.28;5034057;28;10044;-67
2022/05/02 10:20:19;;;;;;;;;35.50;31.25;;;;;-143.93;100.00;62969.28;5021379;28;8868;-67
2022/05/02 10:23:10;;;;;;;;;36.00;30.25;;;;;-143.93;100.00;62969.28;5032343;28;9689;-68
2022/05/02 10:25:58;;;;;;;;;36.00;31.75;;;;;-143.93;100.00;62969.28;5025965;28;8816;-68
2022/05/02 10:28:40;;;;;;;;;34.75;30.50;;;;;-143.93;100.00;62969.28;5016897;28;8805;-67
2022/05/02 10:31:27;;;;;;;;;37.25;29.75;;;;;-143.93;100.00;62969.28;4997481;28;8882;-67
2022/05/02 10:33:54;;;;;;;;;35.25;30.25;;;;;-143.93;100.00;62969.28;5019092;28;8797;-69
2022/05/02 10:36:27;;;;;;;;;31.75;30.00;;;;;-143.93;100.00;62969.28;5034898;27;8850;-67
2022/05/02 10:39:02;;;;;;;;;36.50;32.25;;;;;-143.93;100.00;62969.28;5001577;28;8828;-67
2022/05/02 10:41:44;;;;;;;;;30.75;28.75;;;;;-143.93;100.00;62969.28;5003509;28;8809;-67
2022/05/02 10:44:16;;;;;;;;;31.50;30.50;;;;;-143.93;100.00;62969.28;5003759;28;8908;-67
2022/05/02 10:46:44;;;;;;;;;36.75;32.50;;;;;-143.93;100.00;62969.28;5001523;28;8793;-68
2022/05/02 10:49:24;;;;;;;;;35.00;31.25;;;;;-143.93;100.00;62969.28;5003189;28;10076;-68
2022/05/02 10:51:59;;;;;;;;;35.25;29.25;;;;;-143.93;100.00;62969.28;5000726;28;8801;-68
2022/05/02 10:54:50;;;;;;;;;29.25;29.00;;;;;-143.93;100.00;62969.28;5001293;28;8816;-68
2022/05/02 10:57:31;;;;;;;;;33.50;30.50;;;;;-143.93;100.00;62969.28;4998353;28;8811;-68
2022/05/02 11:00:04;;;;;;;;;30.50;25.00;;;;;-143.93;100.00;62969.28;4999219;28;9576;-68
2022/05/02 11:03:07;;;;;;;;;25.00;24.25;;;;;-143.93;100.00;62969.28;5001521;28;10049;-68
2022/05/02 11:06:02;;;;;;;;;33.25;25.50;;;;;-143.93;100.00;62969.28;5002507;28;9528;-68
2022/05/02 11:08:30;;;;;;;;;30.75;27.75;;;;;-143.93;100.00;62969.28;5001914;28;8817;-68
2022/05/02 11:11:04;;;;;;;;;33.50;29.00;;;;;-143.93;100.00;62969.28;5001356;28;8809;-68
2022/05/02 11:13:44;;;;;;;;;33.00;29.25;;;;;-143.93;100.00;62969.28;5000345;28;8819;-68
2022/05/02 11:16:18;;;;;;;;;35.75;31.50;;;;;-143.93;100.00;62969.28;4996870;28;8910;-68
2022/05/02 11:22:13;;;;;;;;;32.00;27.25;;;;;-143.93;100.00;62969.28;5064183;28;8851;-68
2022/05/02 11:25:00;;;;;;;;;31.50;28.75;;;;;-143.93;100.00;62969.28;5059247;28;8824;-68
2022/05/02 11:27:37;;;;;;;;;27.50;25.25;;;;;-143.93;100.00;62969.28;5064115;28;8945;-67
2022/05/02 11:30:04;;;;;;;;;29.50;22.50;;;;;-143.93;100.00;62969.28;5061536;28;9618;-67
2022/05/02 11:32:54;;;;;;;;;27.00;25.75;;;;;-143.93;100.00;62969.28;5062129;28;8824;-68
2022/05/02 11:35:21;;;;;;;;;26.25;22.25;;;;;-143.93;100.00;62969.28;5061433;28;8789;-68
2022/05/02 11:37:54;;;;;;;;;26.50;22.50;;;;;-143.93;100.00;62969.28;5064108;28;8801;-68
2022/05/02 11:40:27;;;;;;;;;27.25;24.50;;;;;-143.93;100.00;62969.28;5063056;28;9166;-68
2022/05/02 11:42:54;;;;;;;;;30.50;25.25;;;;;-143.93;100.00;62969.28;5057221;28;8811;-68
2022/05/02 11:45:28;;;;;;;;;25.50;22.50;;;;;-143.93;100.00;62969.28;5052675;28;8898;-67
2022/05/02 11:48:28;;;;;;;;;29.25;28.75;;;;;-143.93;100.00;62969.28;5063521;28;8771;-68
2022/05/02 11:50:56;;;;;;;;;31.50;28.75;;;;;-143.93;100.00;62969.28;5049689;28;8866;-68